METAR Data
IDs: Format: Raw Decoded Include TAF

Data at: 0800 UTC 03 Aug 2021

RJBB 030730Z 22006KT 9999 FEW015 BKN080 BKN120 30/25 Q1010 NOSIG